sensor_id;sensor_type;location;lat;lon;timestamp;P1;P2;P0
62778;PMS7003;48821;48.796;2.396;2022-12-07T00:00:30;61.00;46.75;27.50
62778;PMS7003;48821;48.796;2.396;2022-12-07T00:01:42;62.50;47.00;30.25
62778;PMS7003;48821;48.796;2.396;2022-12-07T00:02:53;67.75;52.50;32.00
62778;PMS7003;48821;48.796;2.396;2022-12-07T00:04:04;67.50;51.00;32.25
62778;PMS7003;48821;48.796;2.396;2022-12-07T00:05:16;61.50;49.75;32.00
62778;PMS7003;48821;48.796;2.396;2022-12-07T00:06:26;63.25;50.00;31.50
62778;PMS7003;48821;48.796;2.396;2022-12-07T00:07:37;67.00;50.00;32.25
62778;PMS7003;48821;48.796;2.396;2022-12-07T00:08:47;64.50;50.75;32.25
62778;PMS7003;48821;48.796;2.396;2022-12-07T00:09:58;68.00;52.50;33.75
62778;PMS7003;48821;48.796;2.396;2022-12-07T00:11:10;66.75;52.00;34.00
62778;PMS7003;48821;48.796;2.396;2022-12-07T00:12:22;74.50;55.25;34.50
62778;PMS7003;48821;48.796;2.396;2022-12-07T00:13:32;68.50;52.00;32.25
62778;PMS7003;48821;48.796;2.396;2022-12-07T00:14:43;69.50;51.50;32.25
62778;PMS7003;48821;48.796;2.396;2022-12-07T00:15:53;68.25;51.00;33.00
62778;PMS7003;48821;48.796;2.396;2022-12-07T00:17:04;72.50;53.00;34.00
62778;PMS7003;48821;48.796;2.396;2022-12-07T00:18:14;65.25;49.25;30.00
62778;PMS7003;48821;48.796;2.396;2022-12-07T00:19:24;64.25;49.25;31.00
62778;PMS7003;48821;48.796;2.396;2022-12-07T00:20:35;72.00;53.75;32.50
62778;PMS7003;48821;48.796;2.396;2022-12-07T00:21:45;65.75;52.25;32.50
62778;PMS7003;48821;48.796;2.396;2022-12-07T00:22:55;71.25;53.25;33.25
62778;PMS7003;48821;48.796;2.396;2022-12-07T00:24:06;72.00;53.25;33.00
62778;PMS7003;48821;48.796;2.396;2022-12-07T00:25:16;70.50;54.00;35.50
62778;PMS7003;48821;48.796;2.396;2022-12-07T00:26:31;70.75;53.50;35.50
62778;PMS7003;48821;48.796;2.396;2022-12-07T00:27:46;72.25;54.00;34.75
62778;PMS7003;48821;48.796;2.396;2022-12-07T00:28:58;68.50;51.00;31.75
62778;PMS7003;48821;48.796;2.396;2022-12-07T00:30:10;64.25;51.25;34.00
62778;PMS7003;48821;48.796;2.396;2022-12-07T00:31:21;65.75;51.00;33.25
62778;PMS7003;48821;48.796;2.396;2022-12-07T00:32:33;65.25;51.25;33.25
62778;PMS7003;48821;48.796;2.396;2022-12-07T00:33:43;63.50;51.25;32.00
62778;PMS7003;48821;48.796;2.396;2022-12-07T00:34:54;67.75;51.25;33.00
62778;PMS7003;48821;48.796;2.396;2022-12-07T00:36:05;67.00;49.25;33.00
62778;PMS7003;48821;48.796;2.396;2022-12-07T00:37:18;73.50;54.25;33.25
62778;PMS7003;48821;48.796;2.396;2022-12-07T00:38:29;67.50;52.50;32.75
62778;PMS7003;48821;48.796;2.396;2022-12-07T00:39:41;67.25;52.00;33.00
62778;PMS7003;48821;48.796;2.396;2022-12-07T00:41:01;61.75;47.75;31.00
62778;PMS7003;48821;48.796;2.396;2022-12-07T00:42:20;68.50;53.00;33.00
62778;PMS7003;48821;48.796;2.396;2022-12-07T00:43:31;64.25;49.25;31.75
62778;PMS7003;48821;48.796;2.396;2022-12-07T00:44:41;64.75;50.00;32.25
62778;PMS7003;48821;48.796;2.396;2022-12-07T00:45:52;65.50;52.00;32.25
62778;PMS7003;48821;48.796;2.396;2022-12-07T00:47:03;66.25;51.25;33.25
62778;PMS7003;48821;48.796;2.396;2022-12-07T00:48:13;60.75;46.00;27.75
62778;PMS7003;48821;48.796;2.396;2022-12-07T00:49:23;71.00;51.25;32.25
62778;PMS7003;48821;48.796;2.396;2022-12-07T00:50:34;72.00;52.25;33.00
62778;PMS7003;48821;48.796;2.396;2022-12-07T00:51:44;64.75;51.00;32.25
62778;PMS7003;48821;48.796;2.396;2022-12-07T00:52:54;73.50;52.50;33.25
62778;PMS7003;48821;48.796;2.396;2022-12-07T00:54:05;64.50;50.00;31.00
62778;PMS7003;48821;48.796;2.396;2022-12-07T00:55:15;72.00;53.00;32.50
62778;PMS7003;48821;48.796;2.396;2022-12-07T00:56:26;60.75;48.00;31.00
62778;PMS7003;48821;48.796;2.396;2022-12-07T00:57:38;61.50;46.00;30.00
62778;PMS7003;48821;48.796;2.396;2022-12-07T00:58:52;62.50;49.25;31.75
62778;PMS7003;48821;48.796;2.396;2022-12-07T01:00:10;73.25;54.00;32.50
62778;PMS7003;48821;48.796;2.396;2022-12-07T01:01:20;66.00;51.25;31.50
62778;PMS7003;48821;48.796;2.396;2022-12-07T01:02:31;71.75;50.50;31.00
62778;PMS7003;48821;48.796;2.396;2022-12-07T01:03:42;69.50;49.75;30.75
62778;PMS7003;48821;48.796;2.396;2022-12-07T01:04:52;65.00;50.00;32.00
62778;PMS7003;48821;48.796;2.396;2022-12-07T01:06:02;57.00;41.50;25.00
62778;PMS7003;48821;48.796;2.396;2022-12-07T01:07:13;68.25;50.00;30.75
62778;PMS7003;48821;48.796;2.396;2022-12-07T01:08:24;67.25;50.50;31.25
62778;PMS7003;48821;48.796;2.396;2022-12-07T01:09:35;63.75;48.50;30.00
62778;PMS7003;48821;48.796;2.396;2022-12-07T01:10:46;61.25;46.50;29.75
62778;PMS7003;48821;48.796;2.396;2022-12-07T01:11:56;61.25;48.75;31.25
62778;PMS7003;48821;48.796;2.396;2022-12-07T01:13:06;59.75;46.75;27.25
62778;PMS7003;48821;48.796;2.396;2022-12-07T01:14:17;59.50;45.00;30.00
62778;PMS7003;48821;48.796;2.396;2022-12-07T01:15:27;55.75;45.00;31.00
62778;PMS7003;48821;48.796;2.396;2022-12-07T01:16:38;66.00;47.00;29.00
62778;PMS7003;48821;48.796;2.396;2022-12-07T01:17:48;61.75;47.50;31.00
62778;PMS7003;48821;48.796;2.396;2022-12-07T01:18:59;63.50;46.75;29.50
62778;PMS7003;48821;48.796;2.396;2022-12-07T01:20:11;59.50;47.00;29.50
62778;PMS7003;48821;48.796;2.396;2022-12-07T01:21:22;56.50;44.00;28.50
62778;PMS7003;48821;48.796;2.396;2022-12-07T01:22:44;60.50;48.25;31.00
62778;PMS7003;48821;48.796;2.396;2022-12-07T01:23:56;64.75;48.00;31.75
62778;PMS7003;48821;48.796;2.396;2022-12-07T01:25:08;64.00;48.50;32.00
62778;PMS7003;48821;48.796;2.396;2022-12-07T01:26:21;65.25;50.00;30.75
62778;PMS7003;48821;48.796;2.396;2022-12-07T01:27:33;57.00;45.75;30.00
62778;PMS7003;48821;48.796;2.396;2022-12-07T01:28:44;54.75;40.25;26.00
62778;PMS7003;48821;48.796;2.396;2022-12-07T01:29:55;60.25;46.00;28.00
62778;PMS7003;48821;48.796;2.396;2022-12-07T01:31:06;54.25;44.00;28.00
62778;PMS7003;48821;48.796;2.396;2022-12-07T01:32:20;58.00;45.25;30.00
62778;PMS7003;48821;48.796;2.396;2022-12-07T01:33:31;64.50;51.50;32.00
62778;PMS7003;48821;48.796;2.396;2022-12-07T01:34:44;63.25;49.75;31.25
62778;PMS7003;48821;48.796;2.396;2022-12-07T01:36:04;67.25;50.25;32.00
62778;PMS7003;48821;48.796;2.396;2022-12-07T01:37:38;65.50;50.25;31.00
62778;PMS7003;48821;48.796;2.396;2022-12-07T01:38:50;66.00;49.75;31.00
62778;PMS7003;48821;48.796;2.396;2022-12-07T01:40:03;63.25;49.00;31.75
62778;PMS7003;48821;48.796;2.396;2022-12-07T01:41:14;58.75;48.00;30.00
62778;PMS7003;48821;48.796;2.396;2022-12-07T01:42:25;52.00;37.25;18.75
62778;PMS7003;48821;48.796;2.396;2022-12-07T01:43:36;59.75;45.25;27.25
62778;PMS7003;48821;48.796;2.396;2022-12-07T01:46:27;58.25;44.25;28.00
62778;PMS7003;48821;48.796;2.396;2022-12-07T01:47:38;52.00;39.00;25.50
62778;PMS7003;48821;48.796;2.396;2022-12-07T01:48:48;56.00;43.50;26.00
62778;PMS7003;48821;48.796;2.396;2022-12-07T01:49:59;63.50;48.00;29.75
62778;PMS7003;48821;48.796;2.396;2022-12-07T01:51:10;62.25;45.00;30.25
62778;PMS7003;48821;48.796;2.396;2022-12-07T01:52:27;59.00;45.00;29.75
62778;PMS7003;48821;48.796;2.396;2022-12-07T01:53:43;51.75;40.50;27.50
62778;PMS7003;48821;48.796;2.396;2022-12-07T01:54:57;61.25;43.25;26.00
62778;PMS7003;48821;48.796;2.396;2022-12-07T01:56:15;54.75;43.25;27.00
62778;PMS7003;48821;48.796;2.396;2022-12-07T01:57:29;61.00;45.50;26.25
62778;PMS7003;48821;48.796;2.396;2022-12-07T01:58:41;54.50;42.75;27.25
62778;PMS7003;48821;48.796;2.396;2022-12-07T01:59:52;56.00;43.50;29.00
62778;PMS7003;48821;48.796;2.396;2022-12-07T02:01:05;53.75;42.25;28.25
62778;PMS7003;48821;48.796;2.396;2022-12-07T02:02:20;52.75;41.50;28.00
62778;PMS7003;48821;48.796;2.396;2022-12-07T02:03:40;53.00;42.50;26.50
62778;PMS7003;48821;48.796;2.396;2022-12-07T02:04:52;60.50;45.75;28.00
62778;PMS7003;48821;48.796;2.396;2022-12-07T02:06:04;57.25;43.00;27.00
62778;PMS7003;48821;48.796;2.396;2022-12-07T02:07:16;56.50;42.75;26.50
62778;PMS7003;48821;48.796;2.396;2022-12-07T02:08:26;54.00;44.00;29.25
62778;PMS7003;48821;48.796;2.396;2022-12-07T02:09:37;56.25;46.25;29.25
62778;PMS7003;48821;48.796;2.396;2022-12-07T02:10:47;42.75;28.75;13.75
62778;PMS7003;48821;48.796;2.396;2022-12-07T02:11:57;45.25;30.50;21.00
62778;PMS7003;48821;48.796;2.396;2022-12-07T02:14:24;58.50;47.00;28.50
62778;PMS7003;48821;48.796;2.396;2022-12-07T02:15:38;66.00;47.50;31.00
62778;PMS7003;48821;48.796;2.396;2022-12-07T02:17:23;56.75;48.00;30.50
62778;PMS7003;48821;48.796;2.396;2022-12-07T02:19:02;70.75;52.00;31.00
62778;PMS7003;48821;48.796;2.396;2022-12-07T02:24:54;56.75;45.50;30.00
62778;PMS7003;48821;48.796;2.396;2022-12-07T02:27:35;57.50;45.00;29.75
62778;PMS7003;48821;48.796;2.396;2022-12-07T02:29:01;52.50;44.00;27.25
62778;PMS7003;48821;48.796;2.396;2022-12-07T02:30:15;55.75;43.00;27.25
62778;PMS7003;48821;48.796;2.396;2022-12-07T02:31:30;51.25;39.25;26.00
62778;PMS7003;48821;48.796;2.396;2022-12-07T02:37:50;56.75;41.25;26.00
62778;PMS7003;48821;48.796;2.396;2022-12-07T02:39:06;51.25;41.25;26.75
62778;PMS7003;48821;48.796;2.396;2022-12-07T02:41:51;58.50;42.25;24.50
62778;PMS7003;48821;48.796;2.396;2022-12-07T02:43:27;53.00;39.75;25.50
62778;PMS7003;48821;48.796;2.396;2022-12-07T02:44:38;49.50;40.25;26.25
62778;PMS7003;48821;48.796;2.396;2022-12-07T02:45:49;54.50;42.25;27.25
62778;PMS7003;48821;48.796;2.396;2022-12-07T02:47:05;47.00;37.00;23.00
62778;PMS7003;48821;48.796;2.396;2022-12-07T02:48:19;53.00;38.25;24.25
62778;PMS7003;48821;48.796;2.396;2022-12-07T02:49:31;53.25;39.75;24.75
62778;PMS7003;48821;48.796;2.396;2022-12-07T02:50:47;49.75;40.00;25.25
62778;PMS7003;48821;48.796;2.396;2022-12-07T02:51:58;54.25;39.75;25.00
62778;PMS7003;48821;48.796;2.396;2022-12-07T02:53:27;57.00;41.75;26.00
62778;PMS7003;48821;48.796;2.396;2022-12-07T02:54:58;51.25;40.50;25.25
62778;PMS7003;48821;48.796;2.396;2022-12-07T03:00:40;57.25;41.75;27.00
62778;PMS7003;48821;48.796;2.396;2022-12-07T03:03:37;55.50;42.00;25.75
62778;PMS7003;48821;48.796;2.396;2022-12-07T03:06:29;45.75;36.50;24.75
62778;PMS7003;48821;48.796;2.396;2022-12-07T03:09:22;47.50;37.25;23.25
62778;PMS7003;48821;48.796;2.396;2022-12-07T03:10:50;56.25;42.75;26.00
62778;PMS7003;48821;48.796;2.396;2022-12-07T03:12:16;52.75;41.75;25.25
62778;PMS7003;48821;48.796;2.396;2022-12-07T03:15:13;54.00;38.50;24.75
62778;PMS7003;48821;48.796;2.396;2022-12-07T03:16:33;59.50;40.00;26.00
62778;PMS7003;48821;48.796;2.396;2022-12-07T03:17:50;49.25;36.75;24.75
62778;PMS7003;48821;48.796;2.396;2022-12-07T03:20:13;54.50;40.75;25.50
62778;PMS7003;48821;48.796;2.396;2022-12-07T03:21:33;53.00;39.00;25.00
62778;PMS7003;48821;48.796;2.396;2022-12-07T03:22:49;52.75;37.25;23.00
62778;PMS7003;48821;48.796;2.396;2022-12-07T03:24:04;49.25;36.50;24.00
62778;PMS7003;48821;48.796;2.396;2022-12-07T03:25:19;39.50;36.75;23.50
62778;PMS7003;48821;48.796;2.396;2022-12-07T03:26:31;48.50;38.75;25.00
62778;PMS7003;48821;48.796;2.396;2022-12-07T03:27:57;53.75;38.25;23.00
62778;PMS7003;48821;48.796;2.396;2022-12-07T03:29:22;44.50;34.75;21.25
62778;PMS7003;48821;48.796;2.396;2022-12-07T03:30:42;48.50;37.25;24.00
62778;PMS7003;48821;48.796;2.396;2022-12-07T03:32:01;48.75;38.75;24.00
62778;PMS7003;48821;48.796;2.396;2022-12-07T03:33:28;53.25;40.00;25.00
62778;PMS7003;48821;48.796;2.396;2022-12-07T03:36:04;47.50;37.50;24.00
62778;PMS7003;48821;48.796;2.396;2022-12-07T03:37:20;41.50;36.00;23.25
62778;PMS7003;48821;48.796;2.396;2022-12-07T03:38:48;47.75;38.25;24.25
62778;PMS7003;48821;48.796;2.396;2022-12-07T03:40:22;36.25;30.25;17.25
62778;PMS7003;48821;48.796;2.396;2022-12-07T03:41:39;52.25;37.25;23.25
62778;PMS7003;48821;48.796;2.396;2022-12-07T03:42:50;47.25;37.75;23.00
62778;PMS7003;48821;48.796;2.396;2022-12-07T03:44:02;41.00;33.50;23.25
62778;PMS7003;48821;48.796;2.396;2022-12-07T03:45:15;52.25;36.50;21.25
62778;PMS7003;48821;48.796;2.396;2022-12-07T03:49:53;51.75;39.75;27.50
62778;PMS7003;48821;48.796;2.396;2022-12-07T03:51:24;51.00;36.25;23.00
62778;PMS7003;48821;48.796;2.396;2022-12-07T03:54:08;37.75;34.50;23.00
62778;PMS7003;48821;48.796;2.396;2022-12-07T03:55:32;53.50;40.50;25.25
62778;PMS7003;48821;48.796;2.396;2022-12-07T03:56:47;41.75;37.50;23.75
62778;PMS7003;48821;48.796;2.396;2022-12-07T03:58:07;52.75;38.50;25.25
62778;PMS7003;48821;48.796;2.396;2022-12-07T03:59:21;55.50;40.50;24.00
62778;PMS7003;48821;48.796;2.396;2022-12-07T04:00:32;46.50;36.25;21.50
62778;PMS7003;48821;48.796;2.396;2022-12-07T04:01:44;44.75;36.00;23.00
62778;PMS7003;48821;48.796;2.396;2022-12-07T04:03:00;51.25;40.75;23.50
62778;PMS7003;48821;48.796;2.396;2022-12-07T04:04:11;45.25;37.00;23.00
62778;PMS7003;48821;48.796;2.396;2022-12-07T04:05:21;50.00;39.75;25.75
62778;PMS7003;48821;48.796;2.396;2022-12-07T04:06:32;49.00;37.25;24.00
62778;PMS7003;48821;48.796;2.396;2022-12-07T04:07:43;53.50;38.75;24.50
62778;PMS7003;48821;48.796;2.396;2022-12-07T04:08:53;48.00;38.00;25.25
62778;PMS7003;48821;48.796;2.396;2022-12-07T04:10:04;43.00;36.50;23.00
62778;PMS7003;48821;48.796;2.396;2022-12-07T04:11:15;43.25;37.25;23.00
62778;PMS7003;48821;48.796;2.396;2022-12-07T04:12:25;53.75;38.75;24.00
62778;PMS7003;48821;48.796;2.396;2022-12-07T04:13:36;49.25;38.25;25.25
62778;PMS7003;48821;48.796;2.396;2022-12-07T04:15:07;53.25;40.00;25.75
62778;PMS7003;48821;48.796;2.396;2022-12-07T04:16:17;45.75;37.50;23.25
62778;PMS7003;48821;48.796;2.396;2022-12-07T04:17:28;50.75;39.00;24.00
62778;PMS7003;48821;48.796;2.396;2022-12-07T04:18:38;48.75;36.25;23.25
62778;PMS7003;48821;48.796;2.396;2022-12-07T04:19:48;44.75;37.00;25.25
62778;PMS7003;48821;48.796;2.396;2022-12-07T04:20:59;55.25;41.50;25.50
62778;PMS7003;48821;48.796;2.396;2022-12-07T04:22:10;59.00;44.25;27.25
62778;PMS7003;48821;48.796;2.396;2022-12-07T04:23:20;55.75;40.75;25.50
62778;PMS7003;48821;48.796;2.396;2022-12-07T04:24:31;53.50;41.25;25.00
62778;PMS7003;48821;48.796;2.396;2022-12-07T04:25:41;43.25;38.00;23.00
62778;PMS7003;48821;48.796;2.396;2022-12-07T04:26:52;46.25;36.00;23.50
62778;PMS7003;48821;48.796;2.396;2022-12-07T04:28:02;44.75;37.00;25.00
62778;PMS7003;48821;48.796;2.396;2022-12-07T04:29:13;49.50;37.25;24.75
62778;PMS7003;48821;48.796;2.396;2022-12-07T04:30:24;44.75;38.25;24.75
62778;PMS7003;48821;48.796;2.396;2022-12-07T04:31:35;46.00;37.25;23.75
62778;PMS7003;48821;48.796;2.396;2022-12-07T04:32:46;47.50;38.50;25.00
62778;PMS7003;48821;48.796;2.396;2022-12-07T04:33:56;54.75;36.75;24.75
62778;PMS7003;48821;48.796;2.396;2022-12-07T04:35:06;45.50;36.00;22.00
62778;PMS7003;48821;48.796;2.396;2022-12-07T04:36:17;48.50;35.50;23.00
62778;PMS7003;48821;48.796;2.396;2022-12-07T04:37:29;49.50;39.00;25.75
62778;PMS7003;48821;48.796;2.396;2022-12-07T04:38:40;49.50;38.25;24.25
62778;PMS7003;48821;48.796;2.396;2022-12-07T04:39:50;44.00;38.25;23.25
62778;PMS7003;48821;48.796;2.396;2022-12-07T04:41:04;45.50;38.25;24.00
62778;PMS7003;48821;48.796;2.396;2022-12-07T04:42:18;48.25;38.00;23.75
62778;PMS7003;48821;48.796;2.396;2022-12-07T04:43:29;36.00;28.25;15.25
62778;PMS7003;48821;48.796;2.396;2022-12-07T04:44:39;45.75;37.75;25.00
62778;PMS7003;48821;48.796;2.396;2022-12-07T04:45:49;42.75;36.00;23.00
62778;PMS7003;48821;48.796;2.396;2022-12-07T04:47:01;50.25;36.75;23.75
62778;PMS7003;48821;48.796;2.396;2022-12-07T04:48:11;44.75;37.50;25.50
62778;PMS7003;48821;48.796;2.396;2022-12-07T04:49:22;49.00;40.75;25.25
62778;PMS7003;48821;48.796;2.396;2022-12-07T04:50:32;48.25;39.00;22.75
62778;PMS7003;48821;48.796;2.396;2022-12-07T04:51:43;43.50;34.50;23.00
62778;PMS7003;48821;48.796;2.396;2022-12-07T04:52:54;47.25;37.25;25.50
62778;PMS7003;48821;48.796;2.396;2022-12-07T04:54:04;47.75;35.75;22.50
62778;PMS7003;48821;48.796;2.396;2022-12-07T04:55:14;38.25;34.50;22.50
62778;PMS7003;48821;48.796;2.396;2022-12-07T04:56:25;52.25;38.25;23.00
62778;PMS7003;48821;48.796;2.396;2022-12-07T04:57:36;51.75;36.75;23.25
62778;PMS7003;48821;48.796;2.396;2022-12-07T04:58:47;38.75;30.50;20.00
62778;PMS7003;48821;48.796;2.396;2022-12-07T04:59:58;46.00;37.25;23.00
62778;PMS7003;48821;48.796;2.396;2022-12-07T05:01:08;52.25;40.50;24.75
62778;PMS7003;48821;48.796;2.396;2022-12-07T05:02:19;48.50;37.25;24.75
62778;PMS7003;48821;48.796;2.396;2022-12-07T05:03:29;54.25;40.00;24.50
62778;PMS7003;48821;48.796;2.396;2022-12-07T05:04:39;55.25;38.75;25.25
62778;PMS7003;48821;48.796;2.396;2022-12-07T05:05:50;41.00;35.00;23.00
62778;PMS7003;48821;48.796;2.396;2022-12-07T05:07:00;42.75;35.75;22.00
62778;PMS7003;48821;48.796;2.396;2022-12-07T05:08:10;45.50;37.75;24.50
62778;PMS7003;48821;48.796;2.396;2022-12-07T05:09:21;42.00;35.25;23.00
62778;PMS7003;48821;48.796;2.396;2022-12-07T05:10:31;45.25;36.75;24.50
62778;PMS7003;48821;48.796;2.396;2022-12-07T05:11:41;46.50;37.00;23.00
62778;PMS7003;48821;48.796;2.396;2022-12-07T05:12:53;40.50;35.50;22.00
62778;PMS7003;48821;48.796;2.396;2022-12-07T05:15:21;41.75;36.25;23.25
62778;PMS7003;48821;48.796;2.396;2022-12-07T05:16:32;46.00;36.75;24.00
62778;PMS7003;48821;48.796;2.396;2022-12-07T05:17:42;51.00;39.00;25.75
62778;PMS7003;48821;48.796;2.396;2022-12-07T05:18:52;51.50;41.50;26.25
62778;PMS7003;48821;48.796;2.396;2022-12-07T05:20:03;54.25;41.50;27.00
62778;PMS7003;48821;48.796;2.396;2022-12-07T05:21:15;52.75;39.75;24.50
62778;PMS7003;48821;48.796;2.396;2022-12-07T05:22:25;60.00;45.25;27.75
62778;PMS7003;48821;48.796;2.396;2022-12-07T05:23:38;65.00;48.00;30.00
62778;PMS7003;48821;48.796;2.396;2022-12-07T05:24:48;61.00;46.00;27.00
62778;PMS7003;48821;48.796;2.396;2022-12-07T05:25:58;59.75;43.75;28.00
62778;PMS7003;48821;48.796;2.396;2022-12-07T05:27:09;53.75;41.00;24.00
62778;PMS7003;48821;48.796;2.396;2022-12-07T05:28:19;58.50;44.00;27.00
62778;PMS7003;48821;48.796;2.396;2022-12-07T05:29:29;61.75;44.75;29.00
62778;PMS7003;48821;48.796;2.396;2022-12-07T05:30:40;47.50;41.00;26.75
62778;PMS7003;48821;48.796;2.396;2022-12-07T05:31:50;56.75;44.50;27.00
62778;PMS7003;48821;48.796;2.396;2022-12-07T05:33:00;45.25;37.75;25.00
62778;PMS7003;48821;48.796;2.396;2022-12-07T05:34:12;51.00;40.25;25.50
62778;PMS7003;48821;48.796;2.396;2022-12-07T05:35:23;56.50;41.00;27.00
62778;PMS7003;48821;48.796;2.396;2022-12-07T05:36:33;52.00;41.50;25.25
62778;PMS7003;48821;48.796;2.396;2022-12-07T05:37:44;48.50;37.00;25.25
62778;PMS7003;48821;48.796;2.396;2022-12-07T05:38:54;50.50;35.50;23.00
62778;PMS7003;48821;48.796;2.396;2022-12-07T05:40:05;48.50;37.00;25.25
62778;PMS7003;48821;48.796;2.396;2022-12-07T05:41:17;54.00;40.50;24.25
62778;PMS7003;48821;48.796;2.396;2022-12-07T05:42:47;52.75;42.00;25.00
62778;PMS7003;48821;48.796;2.396;2022-12-07T05:43:57;55.25;44.25;28.25
62778;PMS7003;48821;48.796;2.396;2022-12-07T05:45:08;60.00;40.75;27.00
62778;PMS7003;48821;48.796;2.396;2022-12-07T05:46:19;56.75;44.00;27.50
62778;PMS7003;48821;48.796;2.396;2022-12-07T05:47:29;47.50;38.25;25.25
62778;PMS7003;48821;48.796;2.396;2022-12-07T05:48:40;51.75;40.25;26.50
62778;PMS7003;48821;48.796;2.396;2022-12-07T05:49:50;52.75;39.00;25.25
62778;PMS7003;48821;48.796;2.396;2022-12-07T05:51:00;46.75;38.75;25.25
62778;PMS7003;48821;48.796;2.396;2022-12-07T05:52:11;45.00;36.75;24.50
62778;PMS7003;48821;48.796;2.396;2022-12-07T05:53:21;46.25;36.75;23.00
62778;PMS7003;48821;48.796;2.396;2022-12-07T05:54:31;53.75;41.25;25.25
62778;PMS7003;48821;48.796;2.396;2022-12-07T05:55:42;48.50;38.25;23.75
62778;PMS7003;48821;48.796;2.396;2022-12-07T05:56:53;43.25;37.00;24.75
62778;PMS7003;48821;48.796;2.396;2022-12-07T05:58:03;46.75;37.00;24.00
62778;PMS7003;48821;48.796;2.396;2022-12-07T05:59:32;48.25;34.75;23.75
62778;PMS7003;48821;48.796;2.396;2022-12-07T06:00:43;47.25;35.25;22.75
62778;PMS7003;48821;48.796;2.396;2022-12-07T06:01:57;52.25;37.75;23.25
62778;PMS7003;48821;48.796;2.396;2022-12-07T06:03:11;48.00;37.00;24.25
62778;PMS7003;48821;48.796;2.396;2022-12-07T06:04:21;52.25;36.50;25.00
62778;PMS7003;48821;48.796;2.396;2022-12-07T06:05:33;50.00;35.25;23.00
62778;PMS7003;48821;48.796;2.396;2022-12-07T06:06:43;44.25;38.75;25.25
62778;PMS7003;48821;48.796;2.396;2022-12-07T06:07:53;49.00;38.50;23.75
62778;PMS7003;48821;48.796;2.396;2022-12-07T06:09:04;51.50;40.25;25.75
62778;PMS7003;48821;48.796;2.396;2022-12-07T06:10:14;50.75;41.00;26.00
62778;PMS7003;48821;48.796;2.396;2022-12-07T06:11:25;53.50;41.50;26.75
62778;PMS7003;48821;48.796;2.396;2022-12-07T06:12:54;57.25;42.00;28.00
62778;PMS7003;48821;48.796;2.396;2022-12-07T06:14:04;54.75;43.50;28.50
62778;PMS7003;48821;48.796;2.396;2022-12-07T06:15:14;52.50;42.50;26.75
62778;PMS7003;48821;48.796;2.396;2022-12-07T06:16:25;52.25;41.25;27.75
62778;PMS7003;48821;48.796;2.396;2022-12-07T06:17:35;52.75;42.25;28.00
62778;PMS7003;48821;48.796;2.396;2022-12-07T06:18:46;55.50;44.00;27.75
62778;PMS7003;48821;48.796;2.396;2022-12-07T06:19:56;51.50;38.75;26.75
62778;PMS7003;48821;48.796;2.396;2022-12-07T06:21:07;52.00;39.25;23.00
62778;PMS7003;48821;48.796;2.396;2022-12-07T06:22:17;51.50;41.25;28.75
62778;PMS7003;48821;48.796;2.396;2022-12-07T06:23:28;54.50;42.00;28.25
62778;PMS7003;48821;48.796;2.396;2022-12-07T06:24:39;57.00;44.50;28.00
62778;PMS7003;48821;48.796;2.396;2022-12-07T06:25:49;55.50;43.25;27.25
62778;PMS7003;48821;48.796;2.396;2022-12-07T06:27:00;52.75;41.00;26.25
62778;PMS7003;48821;48.796;2.396;2022-12-07T06:28:10;53.25;43.00;26.25
62778;PMS7003;48821;48.796;2.396;2022-12-07T06:29:21;55.50;44.00;27.50
62778;PMS7003;48821;48.796;2.396;2022-12-07T06:30:32;55.00;43.25;27.00
62778;PMS7003;48821;48.796;2.396;2022-12-07T06:31:42;60.00;44.00;27.75
62778;PMS7003;48821;48.796;2.396;2022-12-07T06:32:52;58.50;45.25;28.00
62778;PMS7003;48821;48.796;2.396;2022-12-07T06:34:04;58.50;45.50;27.00
62778;PMS7003;48821;48.796;2.396;2022-12-07T06:35:18;61.75;45.75;30.50
62778;PMS7003;48821;48.796;2.396;2022-12-07T06:36:29;58.75;45.00;30.75
62778;PMS7003;48821;48.796;2.396;2022-12-07T06:37:39;59.75;44.50;29.00
62778;PMS7003;48821;48.796;2.396;2022-12-07T06:38:50;57.00;46.25;29.25
62778;PMS7003;48821;48.796;2.396;2022-12-07T06:40:00;56.25;45.00;29.25
62778;PMS7003;48821;48.796;2.396;2022-12-07T06:41:10;58.25;45.00;28.00
62778;PMS7003;48821;48.796;2.396;2022-12-07T06:42:21;55.75;44.50;27.75
62778;PMS7003;48821;48.796;2.396;2022-12-07T06:43:31;65.00;48.00;27.75
62778;PMS7003;48821;48.796;2.396;2022-12-07T06:44:41;56.75;41.25;30.00
62778;PMS7003;48821;48.796;2.396;2022-12-07T06:45:52;61.25;45.00;29.25
62778;PMS7003;48821;48.796;2.396;2022-12-07T06:47:02;58.50;46.25;29.75
62778;PMS7003;48821;48.796;2.396;2022-12-07T06:48:13;60.75;44.25;29.50
62778;PMS7003;48821;48.796;2.396;2022-12-07T06:49:24;54.25;44.00;26.50
62778;PMS7003;48821;48.796;2.396;2022-12-07T06:50:34;62.75;48.25;30.25
62778;PMS7003;48821;48.796;2.396;2022-12-07T06:51:44;64.75;50.00;31.50
62778;PMS7003;48821;48.796;2.396;2022-12-07T06:52:55;59.75;44.50;26.75
62778;PMS7003;48821;48.796;2.396;2022-12-07T06:54:05;66.00;48.00;31.25
62778;PMS7003;48821;48.796;2.396;2022-12-07T06:55:15;65.75;48.25;30.00
62778;PMS7003;48821;48.796;2.396;2022-12-07T06:56:26;69.00;51.00;32.00
62778;PMS7003;48821;48.796;2.396;2022-12-07T06:57:36;63.25;48.25;32.00
62778;PMS7003;48821;48.796;2.396;2022-12-07T06:58:46;63.50;46.25;29.75
62778;PMS7003;48821;48.796;2.396;2022-12-07T06:59:57;68.00;49.00;31.50
62778;PMS7003;48821;48.796;2.396;2022-12-07T07:01:11;61.75;47.00;31.00
62778;PMS7003;48821;48.796;2.396;2022-12-07T07:02:22;60.00;47.25;29.50
62778;PMS7003;48821;48.796;2.396;2022-12-07T07:03:32;61.75;48.50;30.00
62778;PMS7003;48821;48.796;2.396;2022-12-07T07:04:43;60.75;45.25;29.00
62778;PMS7003;48821;48.796;2.396;2022-12-07T07:05:53;57.75;47.25;31.25
62778;PMS7003;48821;48.796;2.396;2022-12-07T07:07:03;62.25;48.75;29.75
62778;PMS7003;48821;48.796;2.396;2022-12-07T07:08:14;61.50;47.75;30.75
62778;PMS7003;48821;48.796;2.396;2022-12-07T07:09:25;63.25;46.75;30.75
62778;PMS7003;48821;48.796;2.396;2022-12-07T07:10:36;62.00;46.75;29.75
62778;PMS7003;48821;48.796;2.396;2022-12-07T07:11:46;62.00;47.50;29.00
62778;PMS7003;48821;48.796;2.396;2022-12-07T07:12:57;58.50;45.50;29.00
62778;PMS7003;48821;48.796;2.396;2022-12-07T07:14:07;61.75;45.50;30.00
62778;PMS7003;48821;48.796;2.396;2022-12-07T07:15:17;54.00;43.75;28.50
62778;PMS7003;48821;48.796;2.396;2022-12-07T07:16:29;57.00;43.50;29.50
62778;PMS7003;48821;48.796;2.396;2022-12-07T07:17:40;49.50;37.00;16.75
62778;PMS7003;48821;48.796;2.396;2022-12-07T07:18:51;56.50;45.25;31.50
62778;PMS7003;48821;48.796;2.396;2022-12-07T07:20:01;58.75;46.50;29.75
62778;PMS7003;48821;48.796;2.396;2022-12-07T07:21:11;59.25;45.25;28.50
62778;PMS7003;48821;48.796;2.396;2022-12-07T07:22:22;56.50;41.50;27.25
62778;PMS7003;48821;48.796;2.396;2022-12-07T07:23:32;63.50;49.00;31.50